createdAt,value
2022-12-23T00:03:04.703Z,15.07
2022-12-23T00:07:16.334Z,14.98
2022-12-23T00:11:28.760Z,18.47
2022-12-23T00:15:40.326Z,21.17
2022-12-23T00:19:51.830Z,19.52
2022-12-23T00:24:03.523Z,18.42
2022-12-23T00:28:17.457Z,17.73
2022-12-23T00:32:29.031Z,16.48
2022-12-23T00:36:40.871Z,19.63
2022-12-23T00:41:27.796Z,22.40
2022-12-23T00:45:39.375Z,24.33
2022-12-23T00:49:50.954Z,17.25
2022-12-23T00:54:03.176Z,22.90
2022-12-23T00:58:17.152Z,26.73
2022-12-23T01:02:47.440Z,23.00
2022-12-23T01:06:59.144Z,19.38
2022-12-23T01:11:12.008Z,20.08
2022-12-23T01:15:24.001Z,16.63
2022-12-23T01:19:35.679Z,18.73
2022-12-23T01:23:47.404Z,19.60
2022-12-23T01:27:59.062Z,16.65
2022-12-23T01:32:10.927Z,18.55
2022-12-23T01:36:23.404Z,14.68
2022-12-23T01:40:37.111Z,22.60
2022-12-23T01:45:00.655Z,15.70
2022-12-23T01:49:12.314Z,11.63
2022-12-23T01:53:38.835Z,11.50
2022-12-23T01:57:52.807Z,16.30
2022-12-23T02:02:23.140Z,17.17
2022-12-23T02:06:56.391Z,12.25
2022-12-23T02:11:55.499Z,16.40
2022-12-23T02:16:17.135Z,15.57
2022-12-23T02:20:49.802Z,15.60
2022-12-23T02:25:13.319Z,16.73
2022-12-23T02:29:43.713Z,16.92
2022-12-23T02:34:07.783Z,15.32
2022-12-23T02:38:31.554Z,17.83
2022-12-23T02:43:00.261Z,17.88
2022-12-23T02:47:21.296Z,16.98
2022-12-23T02:51:37.986Z,16.60
2022-12-23T02:55:52.621Z,26.20
2022-12-23T03:00:06.516Z,17.55
2022-12-23T03:04:18.216Z,20.25
2022-12-23T03:08:34.803Z,16.17
2022-12-23T03:13:04.052Z,17.73
2022-12-23T03:17:33.204Z,22.08
2022-12-23T03:22:10.641Z,17.80
2022-12-23T03:26:40.510Z,15.80
2022-12-23T03:30:57.452Z,16.35
2022-12-23T03:35:11.155Z,18.30
2022-12-23T03:39:28.816Z,12.33
2022-12-23T03:43:50.361Z,12.07
2022-12-23T03:48:10.067Z,12.55
2022-12-23T03:52:30.742Z,10.00
2022-12-23T03:56:48.000Z,9.27
2022-12-23T04:01:11.404Z,10.87
2022-12-23T04:05:34.907Z,10.25
2022-12-23T04:09:48.155Z,12.27
2022-12-23T04:13:59.781Z,9.30
2022-12-23T04:18:17.514Z,8.40
2022-12-23T04:22:29.128Z,8.27
2022-12-23T04:26:40.682Z,7.60
2022-12-23T04:30:52.299Z,6.93
2022-12-23T04:35:04.644Z,6.87
2022-12-23T04:39:16.250Z,9.50
2022-12-23T04:43:27.921Z,8.02
2022-12-23T04:47:40.671Z,7.63
2022-12-23T04:51:52.676Z,7.23
2022-12-23T04:56:04.571Z,9.77
2022-12-23T05:00:16.577Z,8.03
2022-12-23T05:04:28.265Z,7.43
2022-12-23T05:08:40.042Z,13.17
2022-12-23T05:12:51.644Z,8.00
2022-12-23T05:17:07.451Z,8.80
2022-12-23T05:21:19.636Z,9.85
2022-12-23T05:25:33.840Z,8.33
2022-12-23T05:29:45.497Z,9.80
2022-12-23T05:34:02.330Z,9.10
2022-12-23T05:38:18.133Z,10.57
2022-12-23T05:42:29.755Z,12.17
2022-12-23T05:46:41.425Z,8.90
2022-12-23T05:50:53.603Z,9.40
2022-12-23T05:55:05.870Z,10.33
2022-12-23T05:59:17.476Z,13.30
2022-12-23T06:03:29.466Z,15.98
2022-12-23T06:07:42.020Z,11.43
2022-12-23T06:11:53.591Z,13.38
2022-12-23T06:16:05.724Z,10.60
2022-12-23T06:20:20.734Z,12.40
2022-12-23T06:24:32.783Z,11.52
2022-12-23T06:28:44.347Z,11.05
2022-12-23T06:32:55.933Z,10.60
2022-12-23T06:37:07.670Z,11.03
2022-12-23T06:41:19.188Z,10.35
2022-12-23T06:45:30.806Z,13.23
2022-12-23T06:49:42.539Z,11.27
2022-12-23T06:53:54.285Z,11.13
2022-12-23T06:58:06.094Z,12.03
2022-12-23T07:02:17.771Z,10.60
2022-12-23T07:06:29.585Z,13.53
2022-12-23T07:10:41.418Z,14.60
2022-12-23T07:14:52.974Z,13.53
2022-12-23T07:19:04.791Z,9.37
2022-12-23T07:23:16.822Z,12.25
2022-12-23T07:27:28.366Z,14.68
2022-12-23T07:31:41.313Z,16.10
2022-12-23T07:35:58.682Z,11.13
2022-12-23T07:40:10.994Z,11.83
2022-12-23T07:44:22.593Z,21.05
2022-12-23T07:48:34.128Z,17.80
2022-12-23T07:52:45.943Z,16.37
2022-12-23T07:56:58.135Z,18.58
2022-12-23T08:01:09.831Z,19.40
2022-12-23T08:05:21.866Z,18.67
2022-12-23T08:09:33.563Z,18.50
2022-12-23T08:13:46.102Z,19.13
2022-12-23T08:17:57.706Z,16.53
2022-12-23T08:22:09.241Z,13.87
2022-12-23T08:26:23.503Z,13.27
2022-12-23T08:30:35.219Z,13.23
2022-12-23T08:34:46.884Z,13.33
2022-12-23T08:39:01.215Z,12.10
2022-12-23T08:43:12.860Z,13.10
2022-12-23T08:47:24.552Z,10.75
2022-12-23T08:51:37.914Z,14.10
2022-12-23T08:55:49.619Z,14.70
2022-12-23T09:00:01.245Z,13.63
2022-12-23T09:04:14.159Z,13.60
2022-12-23T09:08:25.939Z,13.73
2022-12-23T09:12:37.608Z,11.52
2022-12-23T09:16:52.607Z,14.93
2022-12-23T09:21:07.079Z,11.75
2022-12-23T09:25:18.716Z,13.43
2022-12-23T09:29:30.317Z,12.77
2022-12-23T09:33:42.355Z,12.38
2022-12-23T09:37:53.889Z,13.87
2022-12-23T09:42:25.310Z,14.38
2022-12-23T09:46:45.206Z,13.43
2022-12-23T09:50:57.104Z,15.18
2022-12-23T09:55:12.103Z,18.10
2022-12-23T10:00:02.100Z,16.83
2022-12-23T10:04:22.913Z,16.23
2022-12-23T10:08:39.556Z,18.17
2022-12-23T10:12:53.729Z,27.90
2022-12-23T10:17:14.611Z,17.88
2022-12-23T10:21:47.268Z,19.60
2022-12-23T10:26:03.669Z,21.70
2022-12-23T10:35:06.863Z,22.83
2022-12-23T10:39:51.309Z,21.90
2022-12-23T10:44:23.138Z,24.33
2022-12-23T10:48:46.862Z,29.60
2022-12-23T10:53:03.119Z,24.30
2022-12-23T10:57:17.342Z,26.15
2022-12-23T11:01:31.258Z,25.60
2022-12-23T11:05:44.490Z,26.33
2022-12-23T11:10:04.057Z,23.52
2022-12-23T11:14:36.833Z,26.77
2022-12-23T11:18:58.584Z,24.50
2022-12-23T11:23:31.210Z,29.48
2022-12-23T11:27:44.797Z,27.40
2022-12-23T11:31:56.619Z,37.53
2022-12-23T11:36:17.574Z,28.17
2022-12-23T11:40:36.019Z,41.55
2022-12-23T11:44:51.639Z,36.22
2022-12-23T11:49:33.679Z,43.38
2022-12-23T11:53:45.256Z,35.88
2022-12-23T11:57:57.112Z,37.17
2022-12-23T12:02:44.471Z,31.70
2022-12-23T12:06:57.240Z,30.27
2022-12-23T12:11:16.588Z,31.83
2022-12-23T12:15:34.165Z,29.40
2022-12-23T12:19:45.823Z,29.15
2022-12-23T12:24:20.048Z,22.83
2022-12-23T12:28:40.065Z,26.77
2022-12-23T12:32:59.387Z,27.95
2022-12-23T12:37:36.837Z,23.65
2022-12-23T12:41:58.497Z,28.10
2022-12-23T12:46:31.311Z,25.20
2022-12-23T12:50:56.804Z,28.00
2022-12-23T12:55:40.199Z,27.27
2022-12-23T13:00:01.621Z,23.00
2022-12-23T13:04:48.488Z,25.17
2022-12-23T13:09:19.342Z,26.20
2022-12-23T13:13:43.261Z,23.65
2022-12-23T13:18:04.067Z,22.93
2022-12-23T13:22:24.662Z,25.52
2022-12-23T13:26:39.668Z,21.03
2022-12-23T13:31:03.030Z,14.90
2022-12-23T13:35:18.807Z,20.52
2022-12-23T13:40:00.889Z,18.02
2022-12-23T13:44:15.041Z,19.73
2022-12-23T13:49:06.158Z,18.80
2022-12-23T13:53:37.669Z,21.20
2022-12-23T13:58:11.584Z,16.03
2022-12-23T14:02:35.411Z,18.47
2022-12-23T14:06:48.367Z,16.57
2022-12-23T14:11:19.884Z,20.03
2022-12-23T14:15:31.454Z,23.10
2022-12-23T14:19:49.134Z,17.40
2022-12-23T14:24:22.547Z,19.13
2022-12-23T14:28:48.602Z,19.70
2022-12-23T14:33:04.080Z,17.63
2022-12-23T14:37:24.567Z,20.17
2022-12-23T14:41:39.478Z,15.95
2022-12-23T14:45:56.604Z,17.35
2022-12-23T14:50:33.810Z,16.87
2022-12-23T14:55:06.078Z,14.10
2022-12-23T14:59:42.768Z,17.07
2022-12-23T15:04:01.629Z,17.37
2022-12-23T15:08:28.949Z,21.37
2022-12-23T15:12:43.613Z,14.07
2022-12-23T15:16:55.288Z,22.77
2022-12-23T15:21:13.258Z,14.87
2022-12-23T15:25:27.876Z,15.13
2022-12-23T15:29:46.743Z,14.47
2022-12-23T15:34:03.510Z,13.53
2022-12-23T15:38:18.130Z,12.17
2022-12-23T15:42:38.454Z,13.90
2022-12-23T15:46:51.333Z,17.87
2022-12-23T15:51:08.666Z,18.13
2022-12-23T15:55:25.128Z,14.57
2022-12-23T15:59:38.626Z,13.47
2022-12-23T16:03:56.896Z,16.00
2022-12-23T16:08:19.376Z,14.83
2022-12-23T16:12:34.894Z,13.87
2022-12-23T16:16:46.560Z,13.37
2022-12-23T16:21:04.024Z,13.67
2022-12-23T16:25:20.605Z,14.53
2022-12-23T16:29:33.583Z,15.00
2022-12-23T16:33:51.856Z,19.07
2022-12-23T16:38:14.379Z,14.53
2022-12-23T16:42:38.291Z,15.20
2022-12-23T16:46:51.639Z,16.23
2022-12-23T16:51:07.486Z,19.30
2022-12-23T16:55:20.317Z,21.60
2022-12-23T16:59:31.879Z,32.87
2022-12-23T17:03:43.607Z,22.07
2022-12-23T17:07:55.249Z,24.40
2022-12-23T17:12:07.030Z,19.90
2022-12-23T17:16:20.685Z,22.60
2022-12-23T17:20:32.295Z,18.10
2022-12-23T17:24:44.092Z,21.97
2022-12-23T17:28:55.713Z,21.70
2022-12-23T17:33:18.463Z,17.37
2022-12-23T17:37:31.482Z,20.03
2022-12-23T17:41:43.056Z,21.27
2022-12-23T17:45:54.840Z,16.47
2022-12-23T17:50:07.303Z,18.33
2022-12-23T17:54:23.260Z,18.97
2022-12-23T17:58:34.890Z,15.82
2022-12-23T18:02:47.133Z,20.48
2022-12-23T18:06:58.765Z,23.13
2022-12-23T18:11:21.279Z,20.15
2022-12-23T18:15:44.568Z,17.95
2022-12-23T18:19:56.141Z,31.75
2022-12-23T18:24:10.084Z,25.30
2022-12-23T18:28:22.377Z,23.35
2022-12-23T18:32:34.082Z,19.80
2022-12-23T18:36:46.291Z,24.67
2022-12-23T18:40:58.170Z,26.13
2022-12-23T18:45:24.971Z,32.30
2022-12-23T18:49:37.137Z,28.08
2022-12-23T18:53:49.078Z,33.50
2022-12-23T18:58:01.141Z,24.45
2022-12-23T19:02:15.229Z,29.70
2022-12-23T19:06:26.934Z,28.58
2022-12-23T19:10:38.591Z,23.33
2022-12-23T19:14:50.257Z,33.42
2022-12-23T19:19:01.858Z,25.33
2022-12-23T19:23:14.378Z,21.77
2022-12-23T19:27:26.039Z,22.48
2022-12-23T19:31:41.024Z,23.02
2022-12-23T19:35:52.541Z,22.33
2022-12-23T19:40:05.377Z,24.65
2022-12-23T19:44:17.039Z,26.58
2022-12-23T19:48:29.430Z,28.95
2022-12-23T19:52:41.086Z,29.98
2022-12-23T19:56:52.927Z,19.95
2022-12-23T20:01:12.812Z,26.27
2022-12-23T20:05:24.459Z,29.25
2022-12-23T20:09:36.507Z,24.40
2022-12-23T20:13:55.350Z,18.75
2022-12-23T20:18:06.970Z,19.70
2022-12-23T20:22:18.592Z,15.77
2022-12-23T20:26:30.153Z,14.23
2022-12-23T20:30:42.440Z,23.67
2022-12-23T20:34:53.999Z,23.48
2022-12-23T20:39:06.125Z,16.20
2022-12-23T20:43:17.677Z,23.27
2022-12-23T20:47:29.251Z,15.95
2022-12-23T20:51:40.882Z,18.13
2022-12-23T20:55:52.472Z,10.73
2022-12-23T21:00:05.500Z,10.48
2022-12-23T21:04:17.861Z,13.40
2022-12-23T21:08:29.488Z,17.70
2022-12-23T21:12:43.120Z,13.95
2022-12-23T21:16:55.524Z,16.73
2022-12-23T21:21:07.252Z,16.80
2022-12-23T21:25:18.848Z,16.70
2022-12-23T21:29:30.484Z,25.83
2022-12-23T21:33:44.700Z,14.75
2022-12-23T21:37:56.279Z,18.73
2022-12-23T21:42:07.908Z,24.40
2022-12-23T21:46:21.654Z,14.88
2022-12-23T21:50:33.272Z,14.75
2022-12-23T21:54:44.795Z,12.48
2022-12-23T21:58:57.893Z,15.48
2022-12-23T22:03:09.474Z,14.40
2022-12-23T22:07:21.051Z,14.13
2022-12-23T22:11:35.283Z,13.50
2022-12-23T22:15:46.794Z,15.37
2022-12-23T22:19:58.363Z,11.23
2022-12-23T22:24:10.488Z,19.47
2022-12-23T22:28:22.423Z,14.50
2022-12-23T22:32:36.613Z,16.20
2022-12-23T22:36:52.421Z,18.17
2022-12-23T22:41:04.172Z,17.77
2022-12-23T22:45:15.891Z,14.50
2022-12-23T22:49:27.765Z,22.73
2022-12-23T22:53:39.351Z,12.47
2022-12-23T22:57:50.909Z,11.87
2022-12-23T23:02:02.690Z,12.48
2022-12-23T23:06:14.444Z,17.10
2022-12-23T23:10:26.089Z,11.80
2022-12-23T23:14:52.802Z,15.00
2022-12-23T23:19:05.129Z,17.60
2022-12-23T23:23:16.977Z,12.02
2022-12-23T23:27:28.593Z,17.80
2022-12-23T23:31:42.488Z,18.65
2022-12-23T23:35:56.491Z,22.80
2022-12-23T23:40:08.727Z,17.87
2022-12-23T23:44:20.607Z,30.50
2022-12-23T23:48:32.120Z,23.57
2022-12-23T23:52:43.630Z,21.02
2022-12-23T23:56:55.114Z,15.83
